Kezdőlap
METAR-TAF:

METAR-TAF

Repülőterek :

Voronyezs, Oroszország

földrajzi szélesség: 51-39N, földrajzi hosszúság: 039-15E, magasság: 154 m

Jelenlegi meteorológiai megfigyelések

A jelentés 38 perccel ezelõtt készült, 04:30 UTC
Dél-délnyugati szél 4 kt
Hőmérséklet -1°C
Páratartalom 100%
Légköri nyomás 1014 hPa
Látótávolság 10 km, vagy több
Szórványos felhőzet 4000 lábon

METAR: UUOO 090430Z 20002MPS 9999 SCT040 M01/M01 Q1014 R12/190055 NOSIG RMK QFE747

Idő: 08:08 (05:08 UTC)

Előrejelzés

A jelentés 3 órával és 8 perccel ezelõtt készült, 02:00 UTC
Az előrejelzés 09-én 03 óra UTC és 09-én 12 óra UTC között érvényes
Dél-délnyugati szél 6 kt
Látótávolság: 3100 m
Szakadozott felhőzet 700 lábon
Párásság

TAF: UUOO 090200Z 0903/0912 20003MPS 3100 BR BKN007

Meteorológiai megfigyelések és előrejelzések több, mint 4000 repülőtéren (METAR és TAF jelentéseket).

A térképen piros és sárga pontok jelzik az elérhető meteorológiai állomásokat.

Mozgassa az egeret a pont fölött, hogy megjelenjen az állomás neve.

Azután kattintson az időjárási megfigyelések és előrejelzések megtekintéséhez.

A térkép megváltoztatása: kattintson a fekete keresztel jelölt zöld gombra ráközelítéshez, a vonallal jelölt zöld gombra távolításhoz, vagy a zöld nyilakra a szomszédos térképek eléréséhez.


METAR-TAF: